Time;durP1;ratioP1;P1;durP2;ratioP2;P2;SDS_P1;SDS_P2;PMS_P1;PMS_P2;Temp;Humidity;BMP_temperature;BMP_pressure;BME280_temperature;BME280_humidity;BME280_pressure;Samples;Min_cycle;Max_cycle;Signal;HPM_P1;HPM_P2
2022/11/02 00:03:05;;;;;;;12.88;5.90;;;9.20;99.90;;;;;;21116497;28;20077;-78
2022/11/02 00:13:06;;;;;;;9.70;5.03;;;9.20;99.90;;;;;;21121373;28;20485;-78
2022/11/02 00:23:09;;;;;;;17.90;6.40;;;9.30;99.90;;;;;;21134780;28;20032;-79
2022/11/02 00:33:10;;;;;;;11.40;6.32;;;9.40;99.90;;;;;;21098565;28;20046;-77
2022/11/02 00:43:12;;;;;;;19.80;7.60;;;9.50;99.90;;;;;;21113557;28;20036;-79
2022/11/02 00:53:13;;;;;;;14.93;6.23;;;9.50;99.90;;;;;;21109814;28;20032;-78
2022/11/02 01:03:20;;;;;;;14.80;6.70;;;9.50;99.90;;;;;;21111362;28;20280;-79
2022/11/02 01:13:22;;;;;;;22.67;6.90;;;9.50;99.90;;;;;;21099129;28;20039;-79
2022/11/02 01:23:24;;;;;;;16.87;6.27;;;9.50;99.90;;;;;;21045835;28;20041;-79
2022/11/02 01:33:26;;;;;;;15.30;5.53;;;9.50;99.90;;;;;;21044694;28;20032;-79
2022/11/02 01:43:33;;;;;;;13.05;5.53;;;9.40;99.90;;;;;;21030484;28;20059;-79
2022/11/02 01:53:37;;;;;;;18.52;6.80;;;9.50;99.90;;;;;;21015984;28;20408;-78
2022/11/02 02:03:39;;;;;;;21.17;6.95;;;9.30;99.90;;;;;;21002588;28;20059;-79
2022/11/02 02:13:42;;;;;;;14.65;6.13;;;9.50;99.90;;;;;;21010767;28;20090;-78
2022/11/02 02:24:14;;;;;;;16.17;6.70;;;9.60;99.90;;;;;;21012670;28;20032;-79
2022/11/02 02:34:24;;;;;;;15.87;6.03;;;9.60;99.90;;;;;;21011802;28;20056;-79
2022/11/02 02:44:32;;;;;;;18.83;6.18;;;9.60;99.90;;;;;;21009840;28;20028;-77
2022/11/02 02:54:38;;;;;;;12.80;5.65;;;9.70;99.90;;;;;;21005751;28;20078;-77
2022/11/02 03:04:39;;;;;;;17.00;6.88;;;9.60;99.90;;;;;;21004151;28;20032;-77
2022/11/02 03:14:46;;;;;;;10.87;5.47;;;9.60;99.90;;;;;;21005808;28;20526;-77
2022/11/02 03:25:05;;;;;;;20.80;6.15;;;9.70;99.90;;;;;;21007531;28;20057;-78
2022/11/02 03:35:14;;;;;;;18.40;5.93;;;9.70;99.90;;;;;;21008198;28;20025;-77
2022/11/02 03:45:21;;;;;;;11.95;5.40;;;9.60;99.90;;;;;;20984883;28;20184;-79
2022/11/02 03:55:34;;;;;;;15.80;6.25;;;9.60;99.90;;;;;;21019982;28;20039;-78
2022/11/02 04:05:36;;;;;;;15.40;5.72;;;9.70;99.90;;;;;;21017712;28;20032;-79
2022/11/02 04:15:44;;;;;;;19.20;5.75;;;9.60;99.90;;;;;;21004314;28;20505;-78
2022/11/02 04:25:52;;;;;;;15.85;5.40;;;9.50;99.90;;;;;;21004588;28;20033;-79
2022/11/02 04:36:08;;;;;;;15.77;5.30;;;9.40;99.90;;;;;;20992266;28;20060;-76
2022/11/02 04:46:10;;;;;;;16.00;5.97;;;9.30;99.90;;;;;;21013334;28;20095;-77
2022/11/02 04:56:12;;;;;;;14.20;5.30;;;9.20;99.90;;;;;;21066086;28;20036;-76
2022/11/02 05:06:13;;;;;;;14.93;5.53;;;9.20;99.90;;;;;;21063662;28;20066;-77
2022/11/02 05:16:16;;;;;;;13.52;4.85;;;9.20;99.90;;;;;;21009016;28;20044;-77
2022/11/02 05:26:17;;;;;;;17.95;5.25;;;9.20;99.90;;;;;;21063006;28;20032;-76
2022/11/02 05:36:21;;;;;;;10.98;4.68;;;9.40;99.90;;;;;;21062864;28;20028;-77
2022/11/02 05:46:25;;;;;;;11.63;4.57;;;9.30;99.90;;;;;;21063213;28;20460;-78
2022/11/02 05:56:26;;;;;;;8.60;4.67;;;9.40;99.90;;;;;;21053188;28;20033;-77
2022/11/02 06:06:27;;;;;;;;;;;9.50;99.90;;;;;;21040713;28;20035;-77
2022/11/02 06:16:28;;;;;;;12.10;4.00;;;9.50;99.90;;;;;;21056623;28;19918;-77
2022/11/02 06:26:29;;;;;;;;;;;9.60;99.90;;;;;;21081129;28;20020;-78
2022/11/02 06:36:30;;;;;;;11.23;4.53;;;9.60;99.90;;;;;;21047573;28;20105;-76
2022/11/02 06:46:31;;;;;;;10.07;4.83;;;9.70;99.90;;;;;;21038721;28;20115;-77
2022/11/02 06:56:31;;;;;;;14.18;5.10;;;9.80;99.90;;;;;;21000464;28;20503;-77
2022/11/02 07:06:33;;;;;;;13.27;5.13;;;9.80;99.90;;;;;;20975382;28;20051;-77
2022/11/02 07:16:34;;;;;;;10.68;5.50;;;10.00;99.90;;;;;;20990947;28;20368;-77
2022/11/02 07:26:35;;;;;;;12.77;5.90;;;10.20;99.90;;;;;;21000052;28;20033;-77
2022/11/02 07:36:36;;;;;;;24.77;6.90;;;10.50;99.90;;;;;;21008189;28;20028;-77
2022/11/02 07:46:36;;;;;;;11.07;5.67;;;10.60;99.90;;;;;;21010977;28;20055;-77
2022/11/02 07:56:37;;;;;;;16.90;6.33;;;10.60;99.90;;;;;;21009319;28;20031;-77
2022/11/02 08:06:38;;;;;;;19.93;6.90;;;10.80;99.90;;;;;;21007972;28;20032;-77
2022/11/02 08:16:39;;;;;;;13.27;5.97;;;11.00;99.90;;;;;;21008712;28;20033;-77
2022/11/02 08:26:40;;;;;;;14.20;5.23;;;11.20;99.90;;;;;;20988494;28;20059;-77
2022/11/02 08:36:40;;;;;;;18.73;6.43;;;11.30;99.90;;;;;;21003325;28;20028;-77
2022/11/02 08:46:41;;;;;;;52.90;18.37;;;11.60;99.90;;;;;;21002531;28;20491;-77
2022/11/02 08:56:42;;;;;;;24.40;9.67;;;11.90;99.90;;;;;;21002599;28;20059;-77
2022/11/02 09:06:43;;;;;;;13.10;2.60;;;12.10;99.90;;;;;;21008025;28;20089;-77
2022/11/02 09:16:43;;;;;;;8.53;1.60;;;12.60;99.90;;;;;;20989025;28;20032;-76
2022/11/02 09:26:44;;;;;;;10.63;2.30;;;13.00;99.90;;;;;;20967057;28;20446;-77
2022/11/02 09:36:45;;;;;;;6.80;1.90;;;13.20;99.90;;;;;;20999758;28;20470;-77
2022/11/02 09:46:47;;;;;;;7.20;1.60;;;13.20;99.90;;;;;;20997391;28;20028;-77
2022/11/02 09:56:49;;;;;;;11.38;2.42;;;13.30;99.90;;;;;;21008434;28;20044;-77
2022/11/02 10:07:13;;;;;;;11.40;2.53;;;13.40;99.90;;;;;;20983179;28;20033;-77
2022/11/02 10:17:25;;;;;;;12.48;1.65;;;13.40;99.90;;;;;;20999578;28;20395;-78
2022/11/02 10:27:29;;;;;;;12.95;2.95;;;13.50;99.90;;;;;;20989804;28;20020;-77
2022/11/02 10:38:03;;;;;;;6.55;1.70;;;13.40;99.90;;;;;;21057447;28;20027;-77
2022/11/02 10:48:36;;;;;;;14.65;2.00;;;13.50;99.90;;;;;;21063331;28;20032;-78
2022/11/02 10:58:42;;;;;;;7.22;1.60;;;13.80;99.90;;;;;;21047957;28;20052;-78
2022/11/02 11:08:52;;;;;;;6.43;1.92;;;14.40;99.90;;;;;;21040574;28;20400;-78
2022/11/02 11:18:53;;;;;;;6.32;1.30;;;14.60;99.90;;;;;;21014954;28;20092;-77
2022/11/02 11:28:55;;;;;;;7.20;1.20;;;14.40;99.90;;;;;;21024576;28;20437;-79
2022/11/02 11:39:22;;;;;;;4.28;1.02;;;14.70;99.90;;;;;;20997804;28;20056;-78
2022/11/02 11:49:26;;;;;;;7.55;1.40;;;14.70;99.90;;;;;;21019220;28;20090;-78
2022/11/02 11:59:43;;;;;;;7.10;1.33;;;15.00;99.90;;;;;;21017609;28;20029;-78
2022/11/02 12:10:21;;;;;;;9.65;1.35;;;15.20;99.90;;;;;;20995147;28;20025;-77
2022/11/02 12:20:37;;;;;;;4.13;1.10;;;15.80;99.90;;;;;;21006191;28;20032;-78
2022/11/02 12:30:37;;;;;;;3.33;0.88;;;17.20;99.90;;;;;;21020283;28;20036;-79
2022/11/02 12:41:02;;;;;;;3.30;1.00;;;17.40;99.90;;;;;;21027250;28;20507;-78
2022/11/02 12:51:18;;;;;;;8.23;1.35;;;18.20;99.90;;;;;;20994889;28;20067;-80
2022/11/02 13:01:29;;;;;;;9.02;0.98;;;18.60;99.90;;;;;;21035818;28;20467;-80
2022/11/02 13:11:36;;;;;;;7.22;1.65;;;18.40;99.90;;;;;;21052476;28;20028;-77
2022/11/02 13:21:42;;;;;;;4.80;1.08;;;18.10;99.90;;;;;;21036064;28;20461;-78
2022/11/02 13:31:51;;;;;;;4.28;1.60;;;18.40;99.90;;;;;;21019483;28;20077;-78
2022/11/02 13:42:12;;;;;;;3.53;0.98;;;17.80;99.90;;;;;;21016347;28;20040;-77
2022/11/02 13:52:17;;;;;;;4.53;0.73;;;18.10;99.90;;;;;;20922394;28;20037;-77
2022/11/02 14:02:20;;;;;;;5.13;1.00;;;17.80;99.90;;;;;;21036658;28;20030;-77
2022/11/02 14:12:21;;;;;;;5.45;0.95;;;18.10;99.90;;;;;;21035425;28;20032;-77
2022/11/02 14:22:22;;;;;;;5.77;0.77;;;18.20;99.90;;;;;;21030006;28;20025;-77
2022/11/02 14:32:40;;;;;;;5.05;0.77;;;18.00;99.90;;;;;;20993361;28;20032;-77
2022/11/02 14:43:00;;;;;;;3.42;0.90;;;18.70;99.90;;;;;;20996931;28;20050;-77
2022/11/02 14:53:20;;;;;;;6.88;1.02;;;19.10;99.90;;;;;;21029094;28;20082;-77
2022/11/02 15:03:24;;;;;;;6.68;1.52;;;19.00;99.90;;;;;;21039662;28;20039;-77
2022/11/02 15:13:33;;;;;;;4.97;1.20;;;19.00;99.90;;;;;;21093245;28;20056;-80
2022/11/02 15:23:39;;;;;;;5.00;1.35;;;18.90;99.90;;;;;;21010770;28;20028;-79
2022/11/02 15:33:49;;;;;;;4.78;1.58;;;18.80;99.90;;;;;;21005919;28;20037;-79
2022/11/02 15:44:17;;;;;;;4.88;1.42;;;18.10;99.90;;;;;;21017058;28;20040;-79
2022/11/02 15:54:43;;;;;;;2.58;1.08;;;16.50;99.90;;;;;;21025359;28;20028;-79
2022/11/02 16:04:46;;;;;;;4.03;1.20;;;15.30;99.90;;;;;;21020873;28;20123;-79
2022/11/02 16:14:59;;;;;;;2.63;1.10;;;13.20;99.90;;;;;;21053186;28;20111;-79
2022/11/02 16:25:08;;;;;;;5.55;1.02;;;13.00;99.90;;;;;;21053473;28;20411;-80
2022/11/02 16:35:13;;;;;;;2.97;1.10;;;12.40;99.90;;;;;;21055817;28;20028;-78
2022/11/02 16:45:31;;;;;;;5.00;1.35;;;11.60;99.90;;;;;;21098863;28;20032;-77
2022/11/02 16:55:46;;;;;;;5.32;1.90;;;11.30;99.90;;;;;;21046997;28;20033;-78
2022/11/02 17:05:48;;;;;;;4.97;1.20;;;11.00;99.90;;;;;;21113556;28;20395;-77
2022/11/02 17:15:50;;;;;;;6.20;1.83;;;10.10;99.90;;;;;;21111685;28;20032;-77
2022/11/02 17:25:51;;;;;;;13.63;2.92;;;10.00;99.90;;;;;;21105295;28;20033;-77
2022/11/02 17:35:54;;;;;;;9.47;3.40;;;10.20;99.90;;;;;;20930979;28;20036;-77
2022/11/02 17:45:55;;;;;;;12.02;3.15;;;10.40;99.90;;;;;;20943081;28;20056;-77
2022/11/02 17:55:56;;;;;;;;;;;10.30;99.90;;;;;;20986692;28;20428;-77
2022/11/02 18:05:57;;;;;;;9.13;3.33;;;10.10;99.90;;;;;;21012677;28;19913;-77
2022/11/02 18:15:58;;;;;;;8.80;3.13;;;10.30;99.90;;;;;;21006216;28;20028;-78
2022/11/02 18:25:59;;;;;;;19.30;2.93;;;10.20;99.90;;;;;;21077811;28;20085;-77
2022/11/02 18:36:08;;;;;;;9.50;2.90;;;10.20;99.90;;;;;;20926942;28;20446;-77
2022/11/02 18:46:09;;;;;;;20.15;4.57;;;10.10;99.90;;;;;;20947698;28;20033;-78
2022/11/02 18:56:10;;;;;;;6.20;2.63;;;9.90;99.90;;;;;;21007975;28;20025;-78
2022/11/02 19:16:31;;;;;;;11.40;2.72;;;9.00;99.90;;;;;;21073089;28;20046;-78
2022/11/02 19:26:36;;;;;;;6.22;3.00;;;8.90;99.90;;;;;;21096934;28;20036;-78
2022/11/02 19:36:37;;;;;;;9.30;3.28;;;8.70;99.90;;;;;;21062092;28;20556;-78
2022/11/02 19:46:38;;;;;;;6.37;2.90;;;8.60;99.90;;;;;;21033462;28;20037;-79
2022/11/02 19:56:39;;;;;;;11.87;3.70;;;8.50;99.90;;;;;;21062122;28;20371;-77
2022/11/02 20:06:42;;;;;;;8.68;3.20;;;8.50;99.90;;;;;;20931059;28;20115;-76
2022/11/02 20:16:43;;;;;;;8.73;2.67;;;8.20;99.90;;;;;;20940816;28;20120;-77
2022/11/02 20:26:44;;;;;;;10.23;3.80;;;8.10;99.90;;;;;;20910593;28;20035;-77
2022/11/02 20:36:46;;;;;;;8.33;4.50;;;7.50;99.90;;;;;;20993951;28;20051;-76
2022/11/02 20:46:49;;;;;;;7.65;3.10;;;7.50;99.90;;;;;;21018254;28;20394;-77
2022/11/02 20:56:51;;;;;;;5.78;2.42;;;7.60;99.90;;;;;;21049644;28;20020;-77
2022/11/02 21:06:52;;;;;;;8.80;2.72;;;7.70;99.90;;;;;;21052815;28;20048;-77
2022/11/02 21:16:52;;;;;;;7.07;3.03;;;7.70;99.90;;;;;;21057077;28;20521;-77
2022/11/02 21:26:53;;;;;;;13.77;3.27;;;7.60;99.90;;;;;;21065635;28;20028;-77
2022/11/02 21:36:54;;;;;;;10.37;2.70;;;7.30;99.90;;;;;;21034795;28;20031;-77
2022/11/02 21:46:56;;;;;;;9.53;3.20;;;7.30;99.90;;;;;;21014043;28;20277;-77
2022/11/02 21:56:57;;;;;;;5.97;2.42;;;7.50;99.90;;;;;;21051738;28;20394;-76
2022/11/02 22:06:59;;;;;;;13.25;3.50;;;8.00;99.90;;;;;;21048721;28;20024;-77
2022/11/02 22:17:00;;;;;;;11.48;3.10;;;8.10;99.90;;;;;;20993910;28;20039;-77
2022/11/02 22:27:00;;;;;;;9.03;3.60;;;8.00;99.90;;;;;;21085120;28;20071;-77
2022/11/02 22:47:20;;;;;;;11.40;2.70;;;7.80;99.90;;;;;;21097195;28;20042;-78
2022/11/02 22:57:21;;;;;;;5.83;3.33;;;7.60;99.90;;;;;;21097714;28;20020;-78
2022/11/02 23:07:22;;;;;;;7.37;2.77;;;7.30;99.90;;;;;;21004205;28;20040;-77
2022/11/02 23:17:23;;;;;;;8.83;2.73;;;7.10;99.90;;;;;;21016973;28;20130;-77
2022/11/02 23:27:24;;;;;;;12.20;3.73;;;6.90;99.90;;;;;;21011426;28;20116;-77
2022/11/02 23:37:24;;;;;;;5.47;2.33;;;6.70;99.90;;;;;;21010253;28;20037;-76
2022/11/02 23:57:48;;;;;;;9.15;2.63;;;7.00;99.90;;;;;;21011068;28;20028;-77
